Las Vegas, Nevada (DRI) Weather observations

Data are for observation ending at time listed.
 Day   Time    Ave.   Ave.  Ave.  Vector   Max.   Stn.    Total    Solar   Ave.  
  of    of     Air    Rel.  Wind   Wind    Wind   Baro.  Precip.   Rad.    Soil  
Year   Day     Temp.  Hum.  Speed  Dir.    Gust   Pres.                    Temp. 
2026   (PST)    F      %     mph   deg.    mph     mb.     in.     W/m2     F   
------------------------------------------------------------------------------
 129   15:40  100.9     9    1.7    57      6.2   936.0    0.00     532    101.6
 129   15:50  101.6     9    3.4   355      9.9   935.9    0.00     506    101.4
 129   16:00  101.0     9    2.4    31      5.6   935.9    0.00     473    101.3
 129   16:10  102.7     9    1.5    12      3.7   935.9    0.00     438    101.1
 129   16:20  102.4     8    2.0   353      5.0   935.9    0.00     405    100.9
 129   16:30  102.9     8    1.6   321      4.7   935.7    0.00     372    100.8
 129   16:40  102.5     9    1.7    54      4.1   935.7    0.00     338    100.5
 129   16:50  103.2     9    1.3   152      3.9   935.7    0.00     306    100.4
 129   17:00  102.2     9    1.7   196      4.7   935.7    0.00     273    100.1
 129   17:10  101.6     9    1.7   148      5.6   935.7    0.00     238    99.9
 129   17:20  100.8     9    2.1   164      5.0   935.7    0.00     207    99.7
 129   17:30  100.3     9    2.9   191      5.6   935.7    0.00     176    99.4
 129   17:40  100.6     9    1.4   180      3.1   935.7    0.00     145    99.0
 129   17:50  100.0    10    1.5   227      3.5   935.8    0.00     116    98.6
 129   18:00   98.2    10    1.9   193      5.0   935.8    0.00      48    98.3
 129   18:10   97.7    10    3.5   172      7.6   935.8    0.00      39    97.9
 129   18:20   97.2    10    3.1   177      7.5   935.9    0.00      23    97.4
 129   18:30   96.8    10    1.4   170      4.1   935.9    0.00      10    97.0
 129   18:40   96.2    11    2.1   179      4.3   936.1    0.00       5    96.6
 129   18:50   96.1    11    1.1   276      5.3   936.2    0.00       2    96.2
 129   19:00   96.0    11    3.2   226      8.8   936.3    0.00       0    95.8
 129   19:10   95.7    10    3.4   232      9.1   936.5    0.00       0    95.5
 129   19:20   95.4    10    2.2   215      6.1   936.6    0.00       0    95.1
 129   19:30   95.1    11    2.2   215      8.5   936.7    0.00       0    94.7
 129   19:40   94.9    10    2.0   224      7.5   936.9    0.00       0    94.3
 129   19:50   94.4    11    1.3   200      3.8   937.0    0.00       0    94.0
 129   20:00   94.0    11    1.4   208      4.5   937.2    0.00       0    93.7
 129   20:10   93.9    11    1.7   221      5.5   937.2    0.00       0    93.4
 129   20:20   93.6    11    0.7   259      3.1   937.4    0.00       0    93.1
 129   20:30   93.2    11    1.5    12      4.4   937.5    0.00       0    92.9
 129   20:40   92.4    12    0.4   112      1.5   937.6    0.00       0    92.7
 129   20:50   90.8    13    0.3   156      1.4   937.8    0.00       0    92.4
 129   21:00   90.7    12    2.0   162      3.9   937.9    0.00       0    92.2
 129   21:10   91.2    12    2.0   185      4.2   937.9    0.00       0    91.9
 129   21:20   90.5    12    1.4   193      2.5   937.9    0.00       0    91.7
 129   21:30   90.5    12    1.1   242      3.7   937.9    0.00       0    91.4
 129   21:40   90.6    13    0.2   175      1.8   937.8    0.00       0    91.2
 129   21:50   90.1    14    0.3    26      2.0   937.9    0.00       0    91.0
 129   22:00   89.4    14    0.3   261      2.6   938.1    0.00       0    90.8
 129   22:10   88.9    13    1.1    20      4.0   938.2    0.00       0    90.6
 129   22:20   89.1    13    2.2    19      4.7   938.4    0.00       0    90.4
 129   22:30   89.0    12    2.1    37      4.9   938.5    0.00       0    90.1
 129   22:40   89.0    12    2.6    24      6.3   938.5    0.00       0    89.9
 129   22:50   88.6    12    1.4    51      3.7   938.6    0.00       0    89.7
 129   23:00   88.1    13    0.9     7      2.0   938.7    0.00       0    89.5
 129   23:10   87.6    13    0.8    19      2.2   938.7    0.00       0    89.3
 129   23:20   87.4    13    0.5    21      2.0   938.8    0.00       0    89.2
 129   23:30   87.3    13    0.5   356      2.5   939.0    0.00       0    89.0
 129   23:40   86.3    14    0.1    98      0.9   939.1    0.00       0    88.8
 129   23:50   84.7    16    0.2   159      1.8   939.2    0.00       0    88.6
 130    0:00   83.3    19    0.1   238      1.1   939.2    0.00       0    88.5
 130    0:10   82.0    19    0.0     0      0.0   939.2    0.00       0    88.3
 130    0:20   81.7    18    0.0     0      0.0   939.2    0.00       0    88.1
 130    0:30   81.3    19    0.3   153      1.5   939.3    0.00       0    87.9
 130    0:40   81.3    19    0.7   168      1.9   939.4    0.00       0    87.7
 130    0:50   80.9    20    0.2   175      0.9   939.5    0.00       0    87.5
 130    1:00   80.2    19    0.0     0      0.0   939.6    0.00       0    87.3
 130    1:10   80.0    18    0.1   167      1.1   939.7    0.00       0    87.1
 130    1:20   80.8    16    0.7    82      3.0   939.8    0.00       0    86.9
 130    1:30   82.7    13    1.0    67      2.5   939.9    0.00       0    86.7
 130    1:40   82.6    13    0.4    80      1.5   940.1    0.00       0    86.6
 130    1:50   82.0    13    0.3   329      1.8   940.2    0.00       0    86.4
 130    2:00   81.3    14    0.1   184      1.2   940.3    0.00       0    86.2
 130    2:10   80.7    14    0.0     0      0.0   940.3    0.00       0    86.0
 130    2:20   80.2    14    0.2    53      1.8   940.4    0.00       0    85.9
 130    2:30   81.9    13    1.2    56      2.3   940.6    0.00       0    85.7
 130    2:40   82.1    13    1.2    63      2.6   940.6    0.00       0    85.6
 130    2:50   81.7    13    1.2    50      3.1   940.8    0.00       0    85.4
 130    3:00   81.9    13    1.7    42      3.7   940.8    0.00       0    85.2
 130    3:10   81.1    13    1.0    76      2.3   940.8    0.00       0    85.1
 130    3:20   80.0    14    0.6   335      2.1   940.9    0.00       0    84.9
 130    3:30   79.8    14    0.6   321      2.9   941.0    0.00       0    84.8
 130    3:40   78.9    15    0.2   185      1.2   941.1    0.00       0    84.7
 130    3:50   78.3    16    0.7   175      1.9   941.2    0.00       0    84.5
 130    4:00   77.7    17    0.1   322      1.0   941.3    0.00       0    84.4
 130    4:10   78.0    16    0.6   353      2.3   941.5    0.00       0    84.3
 130    4:20   78.2    18    0.5    52      1.6   941.7    0.00       0    84.2
 130    4:30   76.8    19    0.0     0      0.0   941.7    0.00       1    84.0
 130    4:40   75.9    21    0.0     0      0.0   941.8    0.00       2    83.9
 130    4:50   75.3    22    0.0     0      0.0   941.9    0.00       5    83.7
 130    5:00   75.1    23    0.0     0      0.0   942.0    0.00      13    83.6
 130    5:10   75.5    22    0.1   352      1.2   942.1    0.00      19    83.4
 130    5:20   75.3    24    0.1   189      0.9   942.3    0.00      27    83.2
 130    5:30   75.3    24    0.1   304      0.9   942.4    0.00      25    83.1
 130    5:40   76.2    24    0.2   144      1.6   942.6    0.00      22    83.0
 130    5:50   76.1    24    0.1   130      0.9   942.8    0.00      24    82.9
 130    6:00   77.1    23    0.0     0      0.0   942.9    0.00      26    82.7
 130    6:10   78.0    25    0.1   339      1.3   943.0    0.00      27    82.6
 130    6:20   79.1    24    0.6     4      2.2   943.2    0.00      29    82.5
 130    6:30   79.1    22    0.4   172      1.5   943.3    0.00      30    82.5
 130    6:40   79.4    20    0.1   161      0.6   943.4    0.00      32    82.5
 130    6:50   79.8    20    0.3    12      2.2   943.5    0.00      33    82.4
 130    7:00   80.6    19    0.6    23      2.5   943.6    0.00      34    82.4
 130    7:10   81.4    17    0.6    24      2.5   943.7    0.00      36    82.3
 130    7:20   81.3    18    0.3    97      1.4   943.7    0.00      39    82.3
 130    7:30   82.4    15    1.5    30      4.1   943.7    0.00      41    82.2
 130    7:40   83.4    14    1.9   354      5.0   943.7    0.00      46    82.1
 130    7:50   84.0    13    1.7    21      4.7   943.6    0.00      47    82.1
 130    8:00   84.6    12    2.4     7      6.6   943.6    0.00      56    82.1
 130    8:10   86.3    11    2.1    49      5.9   943.7    0.00      69    82.1
 130    8:20   86.9    10    4.6    31     11.3   943.7    0.00      71    82.1
 130    8:30   87.1    10    3.8    51      8.6   943.6    0.00      67    82.0
 130    8:40   87.6    10    2.6    44      6.5   943.7    0.00     174    82.0
 130    8:50   88.4    10    4.3    48      8.6   943.8    0.00     508    82.0
 130    9:00   88.3    10    4.2    54      8.0   943.8    0.00     607    82.1
 130    9:10   88.8    10    3.9    56      9.6   943.8    0.00     742    82.2
 130    9:20   89.4     9    3.8    56      8.7   943.8    0.00     766    82.3
 130    9:30   89.8    10    3.6    59      6.9   943.8    0.00     789    82.4
 130    9:40   90.2     9    3.3    55      6.4   943.9    0.00     812    82.6
 130    9:50   91.4     9    3.6    50      7.3   943.8    0.00     833    82.8
 130   10:00   91.3     9    3.3    46      6.3   943.8    0.00     851    83.0
 130   10:10   91.6     9    4.2    48      9.7   943.7    0.00     867    83.4
 130   10:20   92.1     9    4.2    39      8.3   943.7    0.00     882    84.0
 130   10:30   92.4     9    3.2    44      7.6   943.6    0.00     896    84.7
 130   10:40   92.8     9    3.8    44      7.5   943.5    0.00     909    85.5
 130   10:50   92.7     9    2.9    24      6.9   943.4    0.00     919    86.4
 130   11:00   93.4     9    2.2    49      7.2   943.3    0.00     928    87.3
 130   11:10   93.7     9    2.9    60      7.2   943.1    0.00     936    88.1
 130   11:20   94.5     9    2.1    47      6.0   943.0    0.00     942    89.0
 130   11:30   95.1     9    2.2    41      7.6   942.8    0.00     945    89.9
 130   11:40   95.6     9    2.4    43      9.1   942.7    0.00     947    90.8
 130   11:50   95.6     9    4.0    13      9.6   942.6    0.00     947    91.6
 130   12:00   96.2     9    1.8   351      5.5   942.5    0.00     946    92.4
 130   12:10   97.2     9    2.5    13      7.0   942.4    0.00     943    93.1
 130   12:20   96.8     9    2.4    28      7.3   942.4    0.00     940    93.9
 130   12:30   97.1     9    2.3     8      5.1   942.3    0.00     935    94.6
 130   12:40   97.9     9    1.4    52      5.2   942.2    0.00     927    95.3
 130   12:50   98.1     9    1.5    27      4.2   942.0    0.00     918    96.0
 130   13:00   99.4     8    1.7   344      5.2   941.9    0.00     907    96.7
 130   13:10   99.0     9    2.2    68      5.9   941.7    0.00     894    97.2
 130   13:20   98.9     9    1.9    62      5.1   941.6    0.00     880    97.7
 130   13:30   99.3     9    2.1    90      5.3   941.4    0.00     865    98.3
 130   13:40   99.2     8    1.9   316      4.3   941.3    0.00     848    98.9
 130   13:50  100.5     8    1.3    41      5.6   941.2    0.00     830    99.4
 130   14:00   98.5     9    2.3    43      5.3   941.0    0.00     810    99.9
 130   14:10   99.7     8    1.9    13      4.5   940.8    0.00     789    100.3
 130   14:20  100.1     8    2.4   350      5.3   940.6    0.00     766    100.7
 130   14:30  101.6     8    1.6   339      5.3   940.4    0.00     742    101.0
 130   14:40  102.8     8    1.1    26      3.9   940.3    0.00     717    101.3
 130   14:50  101.0     9    1.3   166      4.7   940.1    0.00     691    101.6
 130   15:00  100.6     9    1.7     6      4.3   940.0    0.00     663    101.8
 130   15:10  102.4     8    0.7   235      3.2   939.9    0.00     635    102.0
 130   15:20  103.0     8    1.6   163      4.2   939.8    0.00     606    102.1
 130   15:30  101.9     9    1.9   183      6.6   939.7    0.00     575    102.1

Return to Las Vegas, Nevada graphs page.


Western Regional Climate Center,wrcc@dri.edu